Map

Track Data

SID SEASON NUMBER BASIN SUBBASIN NAME ISO_TIME NATURE LAT LON WMO_WIND WMO_PRES WMO_AGENCY TRACK_TYPE DIST2LAND LANDFALL IFLAG USA_AGENCY USA_ATCF_ID USA_LAT USA_LON USA_RECORD USA_STATUS USA_WIND USA_PRES USA_SSHS USA_R34_NE USA_R34_SE USA_R34_SW USA_R34_NW USA_R50_NE USA_R50_SE USA_R50_SW USA_R50_NW USA_R64_NE USA_R64_SE USA_R64_SW USA_R64_NW USA_POCI USA_ROCI USA_RMW USA_EYE TOKYO_LAT TOKYO_LON TOKYO_GRADE TOKYO_WIND TOKYO_PRES TOKYO_R50_DIR TOKYO_R50_LONG TOKYO_R50_SHORT TOKYO_R30_DIR TOKYO_R30_LONG TOKYO_R30_SHORT TOKYO_LAND CMA_LAT CMA_LON CMA_CAT CMA_WIND CMA_PRES HKO_LAT HKO_LON HKO_CAT HKO_WIND HKO_PRES NEWDELHI_LAT NEWDELHI_LON NEWDELHI_GRADE NEWDELHI_WIND NEWDELHI_PRES NEWDELHI_CI NEWDELHI_DP NEWDELHI_POCI REUNION_LAT REUNION_LON REUNION_TYPE REUNION_WIND REUNION_PRES REUNION_TNUM REUNION_CI REUNION_RMW REUNION_R34_NE REUNION_R34_SE REUNION_R34_SW REUNION_R34_NW REUNION_R50_NE REUNION_R50_SE REUNION_R50_SW REUNION_R50_NW REUNION_R64_NE REUNION_R64_SE REUNION_R64_SW REUNION_R64_NW BOM_LAT BOM_LON BOM_TYPE BOM_WIND BOM_PRES BOM_TNUM BOM_CI BOM_RMW BOM_R34_NE BOM_R34_SE BOM_R34_SW BOM_R34_NW BOM_R50_NE BOM_R50_SE BOM_R50_SW BOM_R50_NW BOM_R64_NE BOM_R64_SE BOM_R64_SW BOM_R64_NW BOM_ROCI BOM_POCI BOM_EYE BOM_POS_METHOD BOM_PRES_METHOD NADI_LAT NADI_LON NADI_CAT NADI_WIND NADI_PRES WELLINGTON_LAT WELLINGTON_LON WELLINGTON_WIND WELLINGTON_PRES DS824_LAT DS824_LON DS824_STAGE DS824_WIND DS824_PRES TD9636_LAT TD9636_LON TD9636_STAGE TD9636_WIND TD9636_PRES TD9635_LAT TD9635_LON TD9635_WIND TD9635_PRES TD9635_ROCI NEUMANN_LAT NEUMANN_LON NEUMANN_CLASS NEUMANN_WIND NEUMANN_PRES MLC_LAT MLC_LON MLC_CLASS MLC_WIND MLC_PRES USA_GUST BOM_GUST BOM_GUST_PER REUNION_GUST REUNION_GUST_PER USA_SEAHGT USA_SEARAD_NE USA_SEARAD_SE USA_SEARAD_SW USA_SEARAD_NW STORM_SPEED STORM_DIR
1920032S17061 1920 2 SI MM NOT_NAMED 1920-02-01 06:00:00 NR -16.9000 61.4000 reunion spur-split 529 521 _____O________ -1 -16.9000 61.4000 99 9.90000 3 257
1920032S17061 1920 2 SI MM NOT_NAMED 1920-02-01 09:00:00 NR -16.9314 61.2634 spur-split 521 498 _____P________ -1 -16.9314 61.2634 99 3 257
1920032S17061 1920 2 SI MM NOT_NAMED 1920-02-01 12:00:00 NR -16.9634 61.1219 spur-split 498 491 _____P________ -1 -16.9634 61.1219 99 3 257
1920032S17061 1920 2 SI MM NOT_NAMED 1920-02-01 15:00:00 NR -16.9965 60.9707 spur-split 491 476 _____P________ -1 -16.9965 60.9707 99 3 257
1920032S17061 1920 2 SI MM NOT_NAMED 1920-02-01 18:00:00 NR -17.0314 60.8050 spur-split 476 453 _____P________ -1 -17.0314 60.8050 99 3 258
1920032S17061 1920 2 SI MM NOT_NAMED 1920-02-01 21:00:00 NR -17.0687 60.6200 spur-split 453 440 _____P________ -1 -17.0687 60.6200 99 4 258
1920032S17061 1920 2 SI MM NOT_NAMED 1920-02-02 00:00:00 NR -17.1088 60.4107 spur-split 440 426 _____P________ -1 -17.1088 60.4107 99 4 259
1920032S17061 1920 2 SI MM NOT_NAMED 1920-02-02 03:00:00 NR -17.1524 60.1723 spur-split 417 398 _____P________ -1 -17.1524 60.1723 99 5 259
1920032S17061 1920 2 SI MM NOT_NAMED 1920-02-02 06:00:00 NR -17.2000 59.9000 reunion spur-split 398 381 _____O________ -1 -17.2000 59.9000 99 9.90000 6 260
1920032S17061 1920 2 SI MM NOT_NAMED 1920-02-02 09:00:00 NR -17.2520 59.5908 spur-split 371 355 _____P________ -1 -17.2520 59.5908 99 6 260
1920032S17061 1920 2 SI MM NOT_NAMED 1920-02-02 12:00:00 NR -17.3091 59.2494 spur-split 350 327 _____P________ -1 -17.3091 59.2494 99 7 260
1920032S17061 1920 2 SI MM NOT_NAMED 1920-02-02 15:00:00 NR -17.3720 58.8825 spur-split 327 313 _____P________ -1 -17.3720 58.8825 99 7 260
1920032S17061 1920 2 SI MM NOT_NAMED 1920-02-02 18:00:00 NR -17.4413 58.4968 spur-split 313 293 _____P________ -1 -17.4413 58.4968 99 8 259
1920032S17061 1920 2 SI MM NOT_NAMED 1920-02-02 21:00:00 NR -17.5180 58.0991 spur-split 293 279 _____P________ -1 -17.5180 58.0991 99 8 258
1920032S17061 1920 2 SI MM NOT_NAMED 1920-02-03 00:00:00 NR -17.6027 57.6959 spur-split 279 268 _____P________ -1 -17.6027 57.6959 99 8 257
1920032S17061 1920 2 SI MM NOT_NAMED 1920-02-03 03:00:00 NR -17.6964 57.2940 spur-split 269 260 _____P________ -1 -17.6964 57.2940 99 8 255
1920032S17061 1920 2 SI MM NOT_NAMED 1920-02-03 06:00:00 NR -17.8000 56.9000 reunion spur-split 264 260 _____O________ -1 -17.8000 56.9000 99 9.90000 8 255
1920032S17061 1920 2 SI MM NOT_NAMED 1920-02-03 09:00:00 NR -17.9011 56.5027 spur-split 267 266 _____P________ -1 -17.9011 56.5027 99 8 254
1920032S17061 1920 2 SI MM NOT_NAMED 1920-02-03 12:00:00 NR -18.0112 56.1050 spur-split 277 273 _____P________ -1 -18.0112 56.1050 99 8 253
1920032S17061 1920 2 SI MM NOT_NAMED 1920-02-03 15:00:00 NR -18.1310 55.7138 spur-split 292 291 _____P________ -1 -18.1310 55.7138 99 8 251
1920032S17061 1920 2 SI MM NOT_NAMED 1920-02-03 18:00:00 NR -18.2611 55.3360 spur-split 302 291 _____P________ -1 -18.2611 55.3360 99 8 249
1920032S17061 1920 2 SI MM NOT_NAMED 1920-02-03 21:00:00 NR -18.4023 54.9787 spur-split 292 282 _____P________ -1 -18.4023 54.9787 99 7 246
1920032S17061 1920 2 SI MM NOT_NAMED 1920-02-04 00:00:00 NR -18.5552 54.6488 spur-split 278 270 _____P________ -1 -18.5552 54.6488 99 7 242
1920032S17061 1920 2 SI MM NOT_NAMED 1920-02-04 03:00:00 NR -18.7209 54.3536 spur-split 273 261 _____P________ -1 -18.7209 54.3536 99 6 236
1920032S17061 1920 2 SI MM NOT_NAMED 1920-02-04 06:00:00 NR -18.9000 54.1000 reunion spur-split 266 257 _____O________ -1 -18.9000 54.1000 99 9.90000 6 231
1920032S17061 1920 2 SI MM NOT_NAMED 1920-02-04 09:00:00 NR -19.0972 53.8558 spur-split 257 253 _____P________ -1 -19.0972 53.8558 99 6 226
1920032S17061 1920 2 SI MM NOT_NAMED 1920-02-04 12:00:00 NR -19.3101 53.6476 spur-split 260 251 _____P________ -1 -19.3101 53.6476 99 6 219
1920032S17061 1920 2 SI MM NOT_NAMED 1920-02-04 15:00:00 NR -19.5348 53.4778 spur-split 251 237 _____P________ -1 -19.5348 53.4778 99 5 212
1920032S17061 1920 2 SI MM NOT_NAMED 1920-02-04 18:00:00 NR -19.7676 53.3493 spur-split 245 232 _____P________ -1 -19.7676 53.3493 99 5 203
1920032S17061 1920 2 SI MM NOT_NAMED 1920-02-04 21:00:00 NR -20.0044 53.2645 spur-split 232 227 _____P________ -1 -20.0044 53.2645 99 5 194
1920032S17061 1920 2 SI MM NOT_NAMED 1920-02-05 00:00:00 NR -20.2414 53.2262 spur-split 231 218 _____P________ -1 -20.2414 53.2262 99 5 0
1920032S17061 1920 2 SI MM NOT_NAMED 1920-02-05 03:00:00 NR -20.4746 53.2371 spur-split 218 202 _____P________ -1 -20.4746 53.2371 99 5 172
1920032S17061 1920 2 SI MM NOT_NAMED 1920-02-05 06:00:00 NR -20.7000 53.3000 reunion spur-split 202 188 _____O________ -1 -20.7000 53.3000 99 9.90000 5 163
1920032S17061 1920 2 SI MM NOT_NAMED 1920-02-05 09:00:00 NR -20.9067 53.3827 spur-split 188 176 _____P________ -1 -20.9067 53.3827 99 5 153
1920032S17061 1920 2 SI MM NOT_NAMED 1920-02-05 12:00:00 NR -21.1079 53.5192 spur-split 176 157 _____P________ -1 -21.1079 53.5192 99 5 143
1920032S17061 1920 2 SI MM NOT_NAMED 1920-02-05 15:00:00 NR -21.3035 53.7046 spur-split 157 138 _____P________ -1 -21.3035 53.7046 99 5 135
1920032S17061 1920 2 SI MM NOT_NAMED 1920-02-05 18:00:00 NR -21.4936 53.9344 spur-split 141 117 _____P________ -1 -21.4936 53.9344 99 6 129
1920032S17061 1920 2 SI MM NOT_NAMED 1920-02-05 21:00:00 NR -21.6782 54.2036 spur-split 122 99 _____P________ -1 -21.6782 54.2036 99 6 124
1920032S17061 1920 2 SI MM NOT_NAMED 1920-02-06 00:00:00 NR -21.8575 54.5075 spur-split 106 91 _____P________ -1 -21.8575 54.5075 99 7 121
1920032S17061 1920 2 SI MM NOT_NAMED 1920-02-06 03:00:00 NR -22.0314 54.8412 spur-split 93 88 _____P________ -1 -22.0314 54.8412 99 7 118
1920032S17061 1920 2 SI MM NOT_NAMED 1920-02-06 06:00:00 NR -22.2000 55.2000 reunion spur-split 98 94 _____O________ -1 -22.2000 55.2000 99 9.90000 8 117
1920032S17061 1920 2 SI MM NOT_NAMED 1920-02-06 09:00:00 NR -22.3767 55.5756 spur-split 111 111 _____P________ -1 -22.3767 55.5756 99 8 116
1920032S17061 1920 2 SI MM NOT_NAMED 1920-02-06 12:00:00 NR -22.5484 55.9855 spur-split 129 129 _____P________ -1 -22.5484 55.9855 99 9 113
1920032S17061 1920 2 SI MM NOT_NAMED 1920-02-06 15:00:00 NR -22.7136 56.4197 spur-split 167 167 _____P________ -1 -22.7136 56.4197 99 9 112
1920032S17061 1920 2 SI MM NOT_NAMED 1920-02-06 18:00:00 NR -22.8711 56.8681 spur-split 211 211 _____P________ -1 -22.8711 56.8681 99 9 110
1920032S17061 1920 2 SI MM NOT_NAMED 1920-02-06 21:00:00 NR -23.0195 57.3206 spur-split 244 244 _____P________ -1 -23.0195 57.3206 99 9 109
1920032S17061 1920 2 SI MM NOT_NAMED 1920-02-07 00:00:00 NR -23.1578 57.7669 spur-split 295 295 _____P________ -1 -23.1578 57.7669 99 8 108
1920032S17061 1920 2 SI MM NOT_NAMED 1920-02-07 03:00:00 NR -23.2849 58.1968 spur-split 317 317 _____P________ -1 -23.2849 58.1968 99 8 108
1920032S17061 1920 2 SI MM NOT_NAMED 1920-02-07 06:00:00 NR -23.4000 58.6000 reunion spur-split 337 337 _____O________ -1 -23.4000 58.6000 99 9.90000 7 108
1920032S17061 1920 2 SI MM NOT_NAMED 1920-02-07 09:00:00 NR -23.5097 58.9642 spur-split 361 361 _____P________ -1 -23.5097 58.9642 99 7 108
1920032S17061 1920 2 SI MM NOT_NAMED 1920-02-07 12:00:00 NR -23.6080 59.3080 spur-split 383 383 _____P________ -1 -23.6080 59.3080 99 6 107
1920032S17061 1920 2 SI MM NOT_NAMED 1920-02-07 15:00:00 NR -23.6958 59.6305 spur-split 407 407 _____P________ -1 -23.6958 59.6305 99 6 106
1920032S17061 1920 2 SI MM NOT_NAMED 1920-02-07 18:00:00 NR -23.7736 59.9311 spur-split 432 432 _____P________ -1 -23.7736 59.9311 99 5 105
1920032S17061 1920 2 SI MM NOT_NAMED 1920-02-07 21:00:00 NR -23.8423 60.2091 spur-split 449 449 _____P________ -1 -23.8423 60.2091 99 5 105
1920032S17061 1920 2 SI MM NOT_NAMED 1920-02-08 00:00:00 NR -23.9024 60.4637 spur-split 476 476 _____P________ -1 -23.9024 60.4637 99 5 104
1920032S17061 1920 2 SI MM NOT_NAMED 1920-02-08 03:00:00 NR -23.9548 60.6943 spur-split 498 498 _____P________ -1 -23.9548 60.6943 99 4 104
1920032S17061 1920 2 SI MM NOT_NAMED 1920-02-08 06:00:00 NR -24.0000 60.9000 reunion spur-split 511 511 _____O________ -1 -24.0000 60.9000 99 9.90000 4 103
1920032S17061 1920 2 SI MM NOT_NAMED 1920-02-08 09:00:00 NR -24.0388 61.0809 spur-split 524 524 _____P________ -1 -24.0388 61.0809 99 3 103
1920032S17061 1920 2 SI MM NOT_NAMED 1920-02-08 12:00:00 NR -24.0721 61.2395 spur-split 539 539 _____P________ -1 -24.0721 61.2395 99 3 103
1920032S17061 1920 2 SI MM NOT_NAMED 1920-02-08 15:00:00 NR -24.1006 61.3789 spur-split 553 553 _____P________ -1 -24.1006 61.3789 99 2 102
1920032S17061 1920 2 SI MM NOT_NAMED 1920-02-08 18:00:00 NR -24.1252 61.5023 spur-split 560 560 _____P________ -1 -24.1252 61.5023 99 2 102
1920032S17061 1920 2 SI MM NOT_NAMED 1920-02-08 21:00:00 NR -24.1467 61.6129 spur-split 568 568 _____P________ -1 -24.1467 61.6129 99 2 102
1920032S17061 1920 2 SI MM NOT_NAMED 1920-02-09 00:00:00 NR -24.1658 61.7139 spur-split 583 583 _____P________ -1 -24.1658 61.7139 99 2 102
1920032S17061 1920 2 SI MM NOT_NAMED 1920-02-09 03:00:00 NR -24.1833 61.8086 spur-split 590 590 _____P________ -1 -24.1833 61.8086 99 2 101
1920032S17061 1920 2 SI MM NOT_NAMED 1920-02-09 06:00:00 NR -24.2000 61.9000 reunion spur-split 597 _____O________ -1 -24.2000 61.9000 99 9.90000 2 102

About IBTrACS Database

This database is a web-friendly format of International Best Track Archive for Climate Stewardship (IBTrACS), a global best track data archive curated by NOAA dating back to 1842.

Updated: 2021-11-26